Time;durP1;ratioP1;P1;durP2;ratioP2;P2;SDS_P1;SDS_P2;PMS_P1;PMS_P2;Temp;Humidity;BMP_temperature;BMP_pressure;BME280_temperature;BME280_humidity;BME280_pressure;Samples;Min_cycle;Max_cycle;Signal;HPM_P1;HPM_P2
2022/01/10 00:01:37;;;;;;;;;;;;;;;;;;;;;
2022/01/10 00:10:58;;;;;;;24.65;8.02;;;;;;;10.26;57.29;100416.38;4877271;28;98549;-80
2022/01/10 00:13:25;;;;;;;30.63;8.40;;;;;;;10.30;57.69;100427.69;5011807;28;96666;-80
2022/01/10 00:15:51;;;;;;;22.77;8.65;;;;;;;9.59;59.19;100425.94;5012185;28;97695;-80
2022/01/10 00:18:18;;;;;;;22.42;8.85;;;;;;;10.03;59.27;100434.88;5007012;28;97189;-79
2022/01/10 00:20:44;;;;;;;20.40;8.40;;;;;;;10.13;58.54;100435.34;5007966;28;100042;-78
2022/01/10 00:23:11;;;;;;;23.70;8.38;;;;;;;10.23;57.77;100450.84;5008716;28;97351;-79
2022/01/10 00:25:37;;;;;;;28.83;10.07;;;;;;;10.04;58.06;100454.22;5012921;28;96867;-79
2022/01/10 00:28:05;;;;;;;24.13;8.20;;;;;;;10.20;57.75;100458.00;5011556;28;97814;-80
2022/01/10 00:30:32;;;;;;;18.77;9.10;;;;;;;9.98;58.48;100456.13;5004952;28;97944;-81
2022/01/10 00:32:59;;;;;;;21.10;8.63;;;;;;;10.09;58.12;100457.53;5010432;28;97368;-80
2022/01/10 00:35:25;;;;;;;25.98;8.57;;;;;;;10.24;57.76;100465.75;5016923;28;96747;-79
2022/01/10 00:37:52;;;;;;;22.95;8.25;;;;;;;10.28;57.49;100469.13;5011968;28;98941;-79
2022/01/10 00:40:19;;;;;;;24.10;8.15;;;;;;;10.31;57.86;100471.66;5013198;28;97069;-81
2022/01/10 00:42:53;;;;;;;22.52;8.52;;;;;;;10.35;56.94;100475.91;5015601;28;97032;-80
2022/01/10 00:45:25;;;;;;;24.13;9.38;;;;;;;10.15;57.43;100476.63;5016436;28;97266;-79
2022/01/10 00:47:52;;;;;;;18.90;8.70;;;;;;;10.26;57.42;100486.81;5019286;27;97827;-80
2022/01/10 00:50:19;;;;;;;25.33;8.68;;;;;;;9.95;57.08;100485.31;5018902;28;97350;-80
2022/01/10 00:52:46;;;;;;;23.27;8.52;;;;;;;10.35;57.37;100497.91;5016269;28;96165;-79
2022/01/10 00:55:14;;;;;;;33.95;9.38;;;;;;;10.19;57.19;100498.53;5019911;27;95938;-80
2022/01/10 00:57:41;;;;;;;28.67;7.72;;;;;;;9.99;57.52;100502.75;5018500;27;99196;-81
2022/01/10 01:00:11;;;;;;;30.58;8.60;;;;;;;10.14;58.20;100497.81;5018134;28;96806;-80
2022/01/10 05:24:19;;;;;;;26.45;9.43;;;;;;;10.39;56.40;100988.16;5035057;22;97452;-79
2022/01/10 05:26:45;;;;;;;27.63;9.15;;;;;;;10.50;56.25;100998.38;4980932;28;98729;-78
2022/01/10 05:29:12;;;;;;;22.17;8.45;;;;;;;10.54;56.34;101001.81;4974094;28;97584;-79
2022/01/10 05:31:38;;;;;;;20.50;8.25;;;;;;;10.47;55.92;101009.06;4977735;28;97492;-79
2022/01/10 05:34:04;;;;;;;24.38;8.15;;;;;;;10.61;56.05;101009.50;4980070;28;98871;-77
2022/01/10 05:36:31;;;;;;;21.73;7.82;;;;;;;10.66;55.66;101014.66;4976191;28;99013;-78
2022/01/10 05:38:57;;;;;;;23.38;8.65;;;;;;;10.59;56.08;101024.53;4980097;28;97151;-79
2022/01/10 05:41:25;;;;;;;23.25;8.15;;;;;;;10.68;55.28;101031.31;4984500;28;96761;-79
2022/01/10 05:43:55;;;;;;;23.35;8.65;;;;;;;10.72;55.28;101033.81;4981125;28;99109;-79
2022/01/10 05:46:22;;;;;;;24.70;8.93;;;;;;;10.69;55.39;101038.34;4978858;28;97181;-78
2022/01/10 05:48:52;;;;;;;25.42;8.32;;;;;;;10.67;55.44;101040.16;4980306;28;98644;-78
2022/01/10 05:51:19;;;;;;;26.92;7.88;;;;;;;10.41;55.75;101048.88;4965820;28;96940;-77
2022/01/10 05:53:46;;;;;;;21.67;8.18;;;;;;;10.47;55.82;101047.84;4974332;28;99268;-78
2022/01/10 05:56:13;;;;;;;27.23;8.32;;;;;;;10.58;55.95;101062.44;4980848;28;99483;-80
2022/01/10 05:58:40;;;;;;;31.13;8.75;;;;;;;10.51;55.55;101065.31;4988729;28;96523;-77
2022/01/10 06:01:07;;;;;;;26.05;8.40;;;;;;;10.63;56.07;101078.19;4994769;28;96678;-77
2022/01/10 06:03:33;;;;;;;25.02;9.02;;;;;;;10.27;56.89;101074.84;4994607;28;98236;-79
2022/01/10 06:06:00;;;;;;;20.42;8.85;;;;;;;10.44;56.05;101077.84;4994357;28;98104;-78
2022/01/10 06:08:26;;;;;;;27.80;9.05;;;;;;;10.55;56.10;101088.09;5004575;28;96788;-80
2022/01/10 06:10:53;;;;;;;23.08;8.00;;;;;;;10.51;55.66;101086.44;4995825;28;96134;-79
2022/01/10 06:13:19;;;;;;;28.00;8.15;;;;;;;10.48;56.02;101095.34;4999736;28;97988;-79
2022/01/10 06:15:47;;;;;;;20.13;8.13;;;;;;;10.66;55.29;101092.16;4992273;28;97677;-78
2022/01/10 06:18:13;;;;;;;20.67;8.10;;;;;;;10.42;55.86;101103.47;4994120;28;96905;-79
2022/01/10 06:20:40;;;;;;;19.85;7.65;;;;;;;10.47;56.00;101106.81;4987655;28;96770;-79
2022/01/10 06:23:09;;;;;;;17.73;7.38;;;;;;;10.50;55.90;101117.28;4988488;28;101223;-80
2022/01/10 06:25:36;;;;;;;26.70;8.80;;;;;;;10.38;55.97;101107.09;4986587;28;98834;-78
2022/01/10 06:28:02;;;;;;;26.60;9.05;;;;;;;10.32;56.31;101121.34;4982324;28;96661;-77
2022/01/10 06:30:29;;;;;;;22.42;8.30;;;;;;;10.51;55.88;101128.72;4986144;28;97902;-77
2022/01/10 06:32:57;;;;;;;38.83;8.95;;;;;;;10.36;56.36;101124.78;4978379;28;98815;-78
2022/01/10 06:35:24;;;;;;;23.05;8.35;;;;;;;10.67;55.81;101124.75;4976872;28;99168;-78
2022/01/10 06:37:54;;;;;;;22.13;7.78;;;;;;;10.63;55.54;101136.31;4984624;28;96750;-80
2022/01/10 06:40:44;;;;;;;34.05;11.48;;;;;;;10.46;56.20;101144.72;4977896;28;96888;-79
2022/01/10 06:43:39;;;;;;;;;;;;;;;;;;;;;
2022/01/10 06:46:32;;;;;;;21.08;8.05;;;;;;;10.72;55.05;101150.13;4973723;28;128452;-80
2022/01/10 06:49:00;;;;;;;24.67;9.25;;;;;;;10.76;54.90;101161.47;4953267;28;97055;-79
2022/01/10 06:51:26;;;;;;;23.52;9.75;;;;;;;10.67;54.79;101169.66;4974085;28;97190;-78
2022/01/10 06:53:53;;;;;;;22.20;8.38;;;;;;;10.45;55.53;101171.19;4971939;28;99202;-78
2022/01/10 06:56:31;;;;;;;20.98;7.82;;;;;;;10.61;55.51;101172.50;4972929;28;98849;-80
2022/01/10 06:58:58;;;;;;;30.38;11.55;;;;;;;10.56;55.60;101183.19;4968462;28;97074;-78
2022/01/10 07:01:24;;;;;;;21.73;7.50;;;;;;;10.76;55.15;101186.09;4970972;28;99230;-77
2022/01/10 07:03:52;;;;;;;22.17;7.32;;;;;;;10.78;55.16;101201.94;4972139;28;99392;-78
2022/01/10 07:06:20;;;;;;;25.58;7.75;;;;;;;10.64;55.25;101204.97;4971769;28;98979;-78
2022/01/10 07:08:47;;;;;;;24.80;8.25;;;;;;;10.38;56.32;101213.63;4975372;28;97859;-78
2022/01/10 07:11:14;;;;;;;23.33;8.05;;;;;;;10.36;55.81;101218.09;4973498;28;96712;-78
2022/01/10 07:13:40;;;;;;;29.48;7.78;;;;;;;10.65;55.70;101227.84;4974747;28;99261;-79
2022/01/10 07:16:07;;;;;;;17.65;7.40;;;;;;;10.63;55.20;101229.66;4978485;28;99141;-77
2022/01/10 07:18:33;;;;;;;23.13;7.40;;;;;;;10.57;55.20;101236.88;4973235;28;99234;-77
2022/01/10 07:21:00;;;;;;;21.13;7.57;;;;;;;10.74;55.00;101251.38;4980310;28;96974;-80
2022/01/10 07:23:29;;;;;;;22.33;8.05;;;;;;;10.75;54.65;101255.78;4971965;28;99964;-81
2022/01/10 07:25:56;;;;;;;22.77;7.40;;;;;;;10.32;55.69;101252.53;4985048;28;97736;-77
2022/01/10 07:28:22;;;;;;;21.60;7.72;;;;;;;9.94;57.30;101270.19;4985510;28;97148;-76
2022/01/10 07:30:49;;;;;;;20.55;8.40;;;;;;;10.22;56.54;101280.97;4985533;28;96831;-78
2022/01/10 07:33:16;;;;;;;26.23;8.40;;;;;;;10.36;56.44;101283.28;4973963;28;99278;-81
2022/01/10 07:35:45;;;;;;;24.15;8.30;;;;;;;10.34;56.66;101285.94;4978556;28;99238;-79
2022/01/10 07:38:12;;;;;;;22.15;8.75;;;;;;;10.37;56.17;101287.66;4988506;28;96948;-76
2022/01/10 07:40:39;;;;;;;25.40;9.00;;;;;;;10.62;55.61;101295.78;4979220;28;97043;-79
2022/01/10 07:43:06;;;;;;;21.52;8.25;;;;;;;10.61;55.77;101309.91;4985141;28;99004;-77
2022/01/10 07:45:33;;;;;;;23.88;8.88;;;;;;;10.57;55.77;101302.94;4971778;28;101845;-74
2022/01/10 07:47:59;;;;;;;28.58;9.25;;;;;;;10.64;55.48;101320.38;4977193;28;96870;-76
2022/01/10 07:50:26;;;;;;;28.65;10.73;;;;;;;10.59;54.97;101317.88;4979240;28;97472;-75
2022/01/10 07:52:53;;;;;;;28.38;9.13;;;;;;;10.68;55.32;101324.69;4976827;28;99124;-75
2022/01/10 07:55:19;;;;;;;22.40;9.88;;;;;;;10.72;55.17;101335.13;4986059;28;99262;-76
2022/01/10 07:57:47;;;;;;;20.63;9.00;;;;;;;10.68;55.04;101330.84;4980073;28;99560;-75
2022/01/10 08:00:14;;;;;;;24.60;9.43;;;;;;;10.65;55.45;101348.56;4972870;28;99403;-79
2022/01/10 08:02:41;;;;;;;26.25;9.10;;;;;;;10.64;55.36;101350.31;4971983;28;99795;-77
2022/01/10 08:05:09;;;;;;;25.45;10.32;;;;;;;10.82;55.38;101353.41;4972644;28;101439;-79
2022/01/10 08:07:35;;;;;;;25.83;10.50;;;;;;;10.73;54.87;101358.03;4978014;28;97317;-77
2022/01/10 08:10:02;;;;;;;20.92;9.18;;;;;;;10.56;55.50;101370.81;4983101;28;96888;-77
2022/01/10 08:12:28;;;;;;;26.20;10.40;;;;;;;10.67;55.70;101368.75;4984540;28;99017;-78
2022/01/10 08:14:56;;;;;;;35.03;10.10;;;;;;;10.70;55.56;101383.66;4985655;28;98838;-76
2022/01/10 08:17:23;;;;;;;30.30;9.32;;;;;;;10.63;55.34;101380.31;4978358;28;97875;-76
2022/01/10 08:19:50;;;;;;;23.88;9.23;;;;;;;10.63;55.17;101390.88;4976908;28;99222;-78
2022/01/10 08:22:16;;;;;;;31.40;9.85;;;;;;;10.52;55.70;101390.28;4977455;28;99036;-77
2022/01/10 08:24:43;;;;;;;24.90;10.00;;;;;;;10.70;55.83;101400.38;4974595;28;98908;-77
2022/01/10 08:27:09;;;;;;;29.42;11.15;;;;;;;10.82;54.50;101409.78;4974269;28;98091;-76
2022/01/10 08:29:36;;;;;;;25.08;10.57;;;;;;;10.74;55.05;101401.19;4979741;28;96957;-77
2022/01/10 08:32:04;;;;;;;29.67;10.40;;;;;;;10.73;54.79;101418.81;4982510;28;98733;-76
2022/01/10 08:34:31;;;;;;;31.00;9.95;;;;;;;10.88;54.70;101421.97;4977933;28;97631;-75
2022/01/10 08:36:57;;;;;;;32.30;9.15;;;;;;;10.77;55.04;101412.53;4979542;28;98086;-75
2022/01/10 08:39:24;;;;;;;30.58;9.63;;;;;;;10.82;54.51;101414.22;4979229;28;96761;-76
2022/01/10 08:41:50;;;;;;;29.45;10.82;;;;;;;10.81;54.58;101425.69;4976974;28;99259;-76
2022/01/10 08:44:20;;;;;;;32.83;9.13;;;;;;;10.83;54.93;101432.66;4974691;28;98946;-76
2022/01/10 08:46:47;;;;;;;31.67;10.43;;;;;;;10.69;54.92;101445.38;4978379;28;97874;-76
2022/01/10 08:49:15;;;;;;;35.60;10.95;;;;;;;10.56;55.17;101447.47;4973751;28;96917;-75
2022/01/10 08:51:42;;;;;;;34.28;11.82;;;;;;;10.70;55.08;101449.72;4978806;28;97856;-77
2022/01/10 08:54:09;;;;;;;32.22;12.50;;;;;;;10.90;54.42;101455.38;4974913;28;98954;-77
2022/01/10 08:56:36;;;;;;;30.50;10.27;;;;;;;10.99;54.54;101454.28;4975450;28;97233;-77
2022/01/10 08:59:04;;;;;;;27.20;10.65;;;;;;;11.10;53.54;101468.97;4974006;28;98321;-75
2022/01/10 09:01:31;;;;;;;26.60;11.82;;;;;;;10.99;54.08;101472.81;4975189;28;98453;-75
2022/01/10 09:03:58;;;;;;;37.80;11.35;;;;;;;11.14;54.00;101475.94;4956905;28;99577;-74
2022/01/10 09:06:25;;;;;;;24.88;10.07;;;;;;;11.12;54.19;101483.03;4973209;28;98804;-75
2022/01/10 09:08:53;;;;;;;27.33;9.70;;;;;;;10.97;54.25;101494.00;4976786;28;96870;-76
2022/01/10 09:11:19;;;;;;;27.13;9.95;;;;;;;10.73;55.23;101500.75;4970678;28;99614;-77
2022/01/10 09:13:46;;;;;;;29.95;10.93;;;;;;;10.65;55.49;101500.06;4976656;28;98912;-77
2022/01/10 09:16:14;;;;;;;27.35;10.75;;;;;;;10.92;54.96;101500.31;4985021;28;96821;-76
2022/01/10 09:18:40;;;;;;;26.15;9.48;;;;;;;11.03;54.64;101511.47;4980753;28;97442;-77
2022/01/10 09:21:08;;;;;;;30.42;10.60;;;;;;;11.04;54.29;101511.44;4973764;28;100864;-77
2022/01/10 09:23:35;;;;;;;26.92;10.65;;;;;;;11.24;53.53;101505.63;4972296;28;98979;-76
2022/01/10 09:26:02;;;;;;;25.73;9.68;;;;;;;11.14;53.91;101517.38;4976357;28;96815;-76
2022/01/10 09:28:28;;;;;;;25.45;9.60;;;;;;;10.52;55.29;101516.25;4979841;28;97227;-77
2022/01/10 09:30:55;;;;;;;27.40;10.07;;;;;;;10.47;55.90;101526.06;4984593;28;99414;-75
2022/01/10 09:33:21;;;;;;;28.52;10.10;;;;;;;10.42;55.38;101531.47;4976581;28;99336;-75
2022/01/10 09:35:47;;;;;;;24.00;9.68;;;;;;;10.23;56.78;101535.41;4978112;28;96968;-76
2022/01/10 09:38:14;;;;;;;25.70;9.52;;;;;;;10.34;55.84;101534.28;4969058;28;97125;-74
2022/01/10 09:40:41;;;;;;;34.80;10.20;;;;;;;10.63;55.43;101544.16;4972758;28;99110;-76
2022/01/10 09:43:08;;;;;;;30.15;10.65;;;;;;;11.07;54.34;101548.41;4970457;28;99057;-75
2022/01/10 09:45:35;;;;;;;29.85;10.73;;;;;;;11.00;54.25;101548.59;4967828;28;97055;-76
2022/01/10 09:48:02;;;;;;;28.38;9.85;;;;;;;11.26;53.32;101562.03;4968412;28;99380;-76
2022/01/10 09:50:28;;;;;;;30.48;11.40;;;;;;;11.28;53.10;101556.72;4974237;28;98905;-76
2022/01/10 09:52:55;;;;;;;39.58;14.48;;;;;;;10.75;53.70;101559.75;4968346;28;99551;-75
2022/01/10 09:55:21;;;;;;;34.50;11.77;;;;;;;11.22;53.99;101573.63;4971572;28;96830;-75
2022/01/10 09:57:49;;;;;;;28.27;11.77;;;;;;;11.18;53.26;101574.59;4968528;28;96891;-76
2022/01/10 10:00:17;;;;;;;28.05;10.77;;;;;;;11.11;54.10;101580.94;4982654;28;98203;-78
2022/01/10 10:02:44;;;;;;;24.33;10.43;;;;;;;10.95;53.58;101587.50;4991410;28;97934;-76
2022/01/10 10:05:12;;;;;;;25.55;9.65;;;;;;;11.02;53.96;101592.63;4986315;28;96673;-77
2022/01/10 10:07:41;;;;;;;30.70;10.77;;;;;;;11.34;53.26;101594.47;4975110;28;96910;-75
2022/01/10 10:10:11;;;;;;;26.80;10.63;;;;;;;11.00;54.51;101596.19;4970602;28;98328;-75
2022/01/10 10:12:39;;;;;;;33.33;11.40;;;;;;;11.27;53.65;101598.19;4972517;28;98613;-76
2022/01/10 10:15:09;;;;;;;33.03;11.40;;;;;;;11.11;54.59;101599.44;4971238;28;96734;-76
2022/01/10 10:17:37;;;;;;;27.98;10.35;;;;;;;11.04;55.02;101606.66;4969090;28;98683;-76
2022/01/10 10:20:11;;;;;;;28.02;10.85;;;;;;;11.26;54.30;101620.25;4962870;28;98859;-75
2022/01/10 10:22:40;;;;;;;45.38;11.88;;;;;;;11.28;53.83;101622.88;4969443;28;100978;-74
2022/01/10 10:25:07;;;;;;;35.38;11.20;;;;;;;11.06;54.27;101630.44;4968551;28;97338;-76
2022/01/10 10:27:40;;;;;;;38.47;10.63;;;;;;;11.25;54.08;101626.44;4975193;28;96818;-76
2022/01/10 10:30:14;;;;;;;30.90;12.23;;;;;;;11.59;53.32;101634.41;4973919;28;98524;-77
2022/01/10 10:32:40;;;;;;;33.00;11.23;;;;;;;11.42;53.57;101629.53;4969144;28;98841;-76
2022/01/10 10:35:09;;;;;;;24.35;10.90;;;;;;;11.48;53.23;101639.13;4972749;28;96908;-77
2022/01/10 10:37:37;;;;;;;31.08;11.25;;;;;;;11.46;53.52;101638.28;4972608;28;97533;-76
2022/01/10 10:40:07;;;;;;;33.17;11.38;;;;;;;11.26;54.67;101643.19;4965637;28;98821;-75
2022/01/10 10:42:34;;;;;;;33.63;11.75;;;;;;;11.28;54.16;101646.66;4989021;22;97595;-74
2022/01/10 10:45:03;;;;;;;27.75;12.10;;;;;;;11.35;53.79;101654.44;4958167;28;97291;-75
2022/01/10 10:47:30;;;;;;;35.88;12.18;;;;;;;11.57;53.44;101649.44;4955728;28;97737;-75
2022/01/10 10:49:58;;;;;;;29.35;10.70;;;;;;;11.67;52.83;101658.03;4954157;28;99288;-75
2022/01/10 10:52:32;;;;;;;26.10;11.57;;;;;;;11.73;52.98;101660.53;4948523;28;98983;-76
2022/01/10 10:55:02;;;;;;;31.65;11.73;;;;;;;11.58;53.45;101669.72;4930937;28;96748;-76
2022/01/10 10:57:30;;;;;;;34.67;12.18;;;;;;;11.42;53.96;101671.88;4929005;28;97157;-75
2022/01/10 10:59:58;;;;;;;27.95;11.90;;;;;;;11.52;53.42;101670.75;4930851;28;99539;-76
2022/01/10 11:02:25;;;;;;;36.83;12.45;;;;;;;11.80;52.56;101673.63;4932839;28;98848;-76
2022/01/10 11:04:52;;;;;;;32.10;11.48;;;;;;;11.34;53.59;101681.78;4940040;28;96803;-76
2022/01/10 11:07:23;;;;;;;35.75;12.90;;;;;;;11.36;53.68;101682.59;4933138;28;97164;-76
2022/01/10 11:09:51;;;;;;;29.13;11.73;;;;;;;11.42;53.94;101690.41;4942763;28;98766;-74
2022/01/10 11:12:22;;;;;;;32.92;12.10;;;;;;;11.55;53.96;101686.53;4933202;28;99014;-77
2022/01/10 11:14:50;;;;;;;28.73;11.32;;;;;;;11.22;53.16;101683.84;4933653;28;97071;-75
2022/01/10 11:17:19;;;;;;;32.95;11.45;;;;;;;11.23;54.23;101683.78;4933621;28;98671;-77
2022/01/10 11:20:16;;;;;;;41.03;12.18;;;;;;;11.10;54.43;101690.28;4934898;28;99002;-77
2022/01/10 11:22:44;;;;;;;35.55;12.82;;;;;;;11.38;54.27;101699.31;4951114;22;99119;-71
2022/01/10 11:25:23;;;;;;;31.10;11.25;;;;;;;11.56;53.10;101695.34;4929131;28;97257;-73
2022/01/10 11:27:52;;;;;;;24.52;9.85;;;;;;;11.33;53.50;101703.88;4929918;28;96870;-74
2022/01/10 11:30:33;;;;;;;26.63;9.82;;;;;;;11.42;51.85;101700.13;4927292;28;99579;-73
2022/01/10 11:33:04;;;;;;;26.98;9.10;;;;;;;11.56;53.05;101706.81;4923107;28;98539;-74
2022/01/10 11:35:34;;;;;;;26.17;9.48;;;;;;;11.61;52.96;101712.03;4911817;28;97197;-73
2022/01/10 11:38:17;;;;;;;29.55;9.05;;;;;;;11.84;51.83;101716.75;4913263;28;97042;-74
2022/01/10 11:40:43;;;;;;;20.38;9.02;;;;;;;11.84;51.56;101722.94;4916066;28;98812;-71
2022/01/10 11:43:26;;;;;;;19.35;8.57;;;;;;;11.69;52.33;101717.97;4905814;28;99113;-74
2022/01/10 11:46:07;;;;;;;20.52;7.75;;;;;;;11.18;52.90;101725.38;4909476;28;97598;-73
2022/01/10 11:48:43;;;;;;;17.77;6.43;;;;;;;10.82;53.68;101732.34;4911651;28;97979;-74
2022/01/10 11:51:16;;;;;;;14.05;6.15;;;;;;;11.04;53.86;101738.91;4906763;28;99189;-74
2022/01/10 11:53:45;;;;;;;11.18;5.35;;;;;;;11.25;52.26;101732.25;4909194;28;97879;-74
2022/01/10 11:56:23;;;;;;;12.43;5.45;;;;;;;11.34;52.26;101736.50;4912438;28;97999;-74
2022/01/10 11:59:23;;;;;;;16.80;6.38;;;;;;;11.64;51.84;101740.19;4911808;28;97506;-74
2022/01/10 12:01:53;;;;;;;17.95;5.88;;;;;;;11.69;51.97;101744.44;4911404;28;100431;-75
2022/01/10 12:04:21;;;;;;;12.35;5.65;;;;;;;11.76;51.37;101755.78;4908957;28;99248;-73
2022/01/10 12:06:50;;;;;;;10.98;5.00;;;;;;;11.71;51.15;101752.38;4910386;28;96813;-74
2022/01/10 12:09:17;;;;;;;12.70;4.78;;;;;;;11.90;50.40;101757.19;4908049;28;96928;-74
2022/01/10 12:11:46;;;;;;;10.35;4.18;;;;;;;11.81;50.11;101756.56;4912475;28;101171;-75
2022/01/10 12:14:13;;;;;;;8.20;4.00;;;;;;;11.51;50.02;101766.94;4912117;28;98800;-75
2022/01/10 12:16:41;;;;;;;8.60;3.75;;;;;;;10.86;52.69;101778.09;4915837;28;96766;-76
2022/01/10 12:19:09;;;;;;;7.97;4.07;;;;;;;11.18;51.75;101783.56;4914749;28;97612;-75
2022/01/10 12:21:36;;;;;;;8.90;4.28;;;;;;;11.23;51.52;101786.09;4914424;28;99043;-74
2022/01/10 12:24:05;;;;;;;10.65;4.68;;;;;;;11.36;51.21;101787.56;4911049;28;99450;-75
2022/01/10 12:26:32;;;;;;;9.73;3.92;;;;;;;11.53;50.71;101788.97;4913682;28;96916;-74
2022/01/10 12:29:00;;;;;;;8.90;4.03;;;;;;;11.72;50.02;101789.41;4915695;28;97468;-73
2022/01/10 12:31:29;;;;;;;11.88;4.72;;;;;;;11.43;51.04;101795.34;4915165;28;99406;-73
2022/01/10 12:33:58;;;;;;;8.73;4.75;;;;;;;11.28;51.51;101802.78;4913499;28;99182;-71
2022/01/10 12:36:26;;;;;;;9.73;4.80;;;;;;;11.09;50.98;101816.38;4917420;28;97118;-71
2022/01/10 12:38:54;;;;;;;10.07;4.30;;;;;;;11.32;51.39;101822.97;4911997;28;97596;-71
2022/01/10 12:41:22;;;;;;;9.43;4.15;;;;;;;11.48;51.31;101825.25;4913137;28;98987;-73
2022/01/10 12:43:49;;;;;;;7.95;3.92;;;;;;;11.30;51.06;101824.75;4911145;28;99447;-73
2022/01/10 12:46:17;;;;;;;6.20;3.10;;;;;;;11.09;51.48;101834.88;4921068;28;98942;-73
2022/01/10 12:48:46;;;;;;;5.80;3.45;;;;;;;11.31;50.87;101847.69;4911281;28;98705;-73
2022/01/10 12:51:12;;;;;;;7.85;3.20;;;;;;;11.50;50.26;101846.38;4911972;28;99081;-72
2022/01/10 12:53:38;;;;;;;5.07;2.50;;;;;;;11.44;50.37;101847.38;4913279;28;99361;-73
2022/01/10 12:56:05;;;;;;;4.93;2.88;;;;;;;11.45;50.13;101862.38;4907639;28;97211;-72
2022/01/10 12:58:35;;;;;;;6.38;3.25;;;;;;;11.76;49.84;101854.63;4909673;28;98214;-73
2022/01/10 13:01:08;;;;;;;5.55;3.10;;;;;;;11.26;50.33;101866.31;4913589;28;99456;-73
2022/01/10 15:48:50;;;;;;;93.10;42.20;;;;;;;10.12;55.80;102194.97;4988754;22;98827;-79
2022/01/10 16:02:14;;;;;;;89.63;41.50;;;;;;;9.86;55.83;102227.81;4808492;29;97794;-86
2022/01/10 16:04:47;;;;;;;85.97;42.17;;;;;;;10.01;55.37;102226.78;4815418;28;97096;-79
2022/01/10 16:07:23;;;;;;;89.07;41.90;;;;;;;10.22;54.70;102231.03;4877147;28;99595;-78
2022/01/10 16:13:09;;;;;;;88.15;42.75;;;;;;;10.05;54.67;102235.53;4885850;28;97188;-74
2022/01/10 16:15:36;;;;;;;102.05;47.40;;;;;;;10.39;54.20;102240.50;4919780;28;96941;-76
2022/01/10 16:18:02;;;;;;;96.82;45.13;;;;;;;10.43;53.75;102245.78;4935984;28;99151;-74
2022/01/10 16:20:30;;;;;;;95.95;45.35;;;;;;;10.33;54.21;102255.56;4941379;28;98885;-76
2022/01/10 16:22:57;;;;;;;105.97;44.67;;;;;;;10.52;53.48;102259.75;4941673;28;96814;-74
2022/01/10 16:25:23;;;;;;;110.60;49.88;;;;;;;10.06;54.40;102266.34;4936328;28;98087;-74
2022/01/10 16:27:54;;;;;;;113.20;51.53;;;;;;;9.92;54.40;102274.41;4934114;28;99130;-76
2022/01/10 16:30:21;;;;;;;118.53;54.03;;;;;;;9.66;56.00;102285.16;4935491;28;99058;-78
2022/01/10 16:32:48;;;;;;;120.68;54.58;;;;;;;9.98;54.52;102284.91;4942928;28;97229;-74
2022/01/10 16:35:14;;;;;;;119.07;53.60;;;;;;;9.43;56.34;102295.00;4942668;28;97122;-76
2022/01/10 16:37:42;;;;;;;124.80;54.58;;;;;;;8.58;55.70;102290.13;4944621;28;98358;-78
2022/01/10 16:40:10;;;;;;;109.13;51.97;;;;;;;8.27;56.37;102302.47;4944762;28;97906;-75
2022/01/10 16:42:37;;;;;;;120.00;54.22;;;;;;;8.34;57.02;102305.09;4946722;28;97193;-75
2022/01/10 16:45:05;;;;;;;115.75;53.20;;;;;;;8.49;56.01;102293.66;4948164;28;97006;-73
2022/01/10 16:47:31;;;;;;;114.78;52.95;;;;;;;8.60;56.28;102301.56;4945863;28;98289;-73
2022/01/10 16:49:59;;;;;;;105.15;51.53;;;;;;;8.62;55.49;102311.19;4940462;28;97394;-76
2022/01/10 16:52:26;;;;;;;111.10;50.95;;;;;;;8.59;54.27;102323.50;4944324;28;96896;-73
2022/01/10 16:54:53;;;;;;;108.28;50.33;;;;;;;8.56;54.75;102329.66;4946614;28;97273;-74
2022/01/10 16:57:20;;;;;;;105.68;50.65;;;;;;;8.32;53.77;102334.97;4942792;28;99068;-73
2022/01/10 16:59:47;;;;;;;104.38;49.42;;;;;;;8.23;54.87;102341.06;4951857;28;99331;-72
2022/01/10 17:02:13;;;;;;;102.90;48.30;;;;;;;8.17;53.45;102346.34;4936716;28;96855;-73
2022/01/10 17:04:41;;;;;;;98.60;46.95;;;;;;;8.35;52.93;102345.47;4943802;28;96923;-74
2022/01/10 17:07:08;;;;;;;103.03;48.28;;;;;;;8.46;52.30;102356.03;4933035;28;99003;-73
2022/01/10 17:09:35;;;;;;;98.03;47.22;;;;;;;8.47;52.03;102352.53;4927651;28;99291;-73
2022/01/10 17:12:04;;;;;;;102.88;47.63;;;;;;;8.54;51.77;102356.88;4935970;28;96823;-73
2022/01/10 17:14:30;;;;;;;103.25;47.25;;;;;;;8.75;50.68;102362.09;4934280;28;98725;-72
2022/01/10 17:16:57;;;;;;;105.38;47.80;;;;;;;8.99;50.67;102362.03;4928444;28;98956;-71
2022/01/10 17:19:23;;;;;;;106.57;47.55;;;;;;;8.99;50.37;102369.09;4935657;28;99182;-74
2022/01/10 17:21:50;;;;;;;98.53;47.60;;;;;;;8.80;50.30;102386.69;4935524;28;96795;-74
2022/01/10 17:24:17;;;;;;;108.10;48.60;;;;;;;8.59;51.24;102385.00;4932052;28;96796;-72
2022/01/10 17:26:43;;;;;;;101.32;46.70;;;;;;;8.37;51.78;102399.94;4935323;28;99065;-74
2022/01/10 17:29:11;;;;;;;104.88;48.63;;;;;;;8.49;51.77;102395.53;4934680;28;98853;-74
2022/01/10 17:31:38;;;;;;;102.78;45.75;;;;;;;8.39;50.99;102400.81;4937752;28;96775;-73
2022/01/10 17:34:05;;;;;;;97.82;46.28;;;;;;;8.33;50.89;102402.56;4941191;28;97130;-75
2022/01/10 17:36:31;;;;;;;93.97;45.95;;;;;;;8.45;50.31;102410.47;4939789;28;98999;-73
2022/01/10 17:38:58;;;;;;;101.57;46.75;;;;;;;8.25;50.43;102413.06;4933964;28;99618;-73
2022/01/10 17:41:24;;;;;;;102.03;46.63;;;;;;;8.31;50.52;102418.38;4932735;28;97277;-74
2022/01/10 17:43:50;;;;;;;98.85;46.03;;;;;;;8.17;50.52;102424.47;4945755;28;97204;-73
2022/01/10 17:46:19;;;;;;;96.05;47.92;;;;;;;8.19;51.37;102428.00;4933084;28;98980;-74
2022/01/10 17:48:45;;;;;;;99.80;46.83;;;;;;;8.16;50.33;102430.59;4939637;28;98938;-74
2022/01/10 17:51:13;;;;;;;100.90;47.38;;;;;;;7.88;50.70;102432.31;4929447;28;96992;-76
2022/01/10 17:53:41;;;;;;;104.07;46.75;;;;;;;7.58;51.32;102438.38;4939378;28;96962;-74
2022/01/10 17:56:08;;;;;;;103.80;48.28;;;;;;;7.11;52.61;102440.78;4938620;28;97402;-75
2022/01/10 17:58:34;;;;;;;111.18;50.65;;;;;;;6.86;53.35;102446.75;4934453;28;99186;-75
2022/01/10 18:01:01;;;;;;;102.80;46.78;;;;;;;7.52;51.80;102446.25;4940936;28;96974;-76
2022/01/10 18:03:29;;;;;;;104.63;48.45;;;;;;;7.75;50.73;102451.56;4928564;28;96785;-76
2022/01/10 18:05:56;;;;;;;106.00;49.05;;;;;;;7.67;51.71;102458.59;4928156;28;99569;-75
2022/01/10 18:08:22;;;;;;;106.40;49.05;;;;;;;7.30;51.00;102474.19;4934656;28;98997;-75
2022/01/10 18:10:49;;;;;;;107.30;48.58;;;;;;;7.47;51.51;102483.06;4940146;28;98060;-74
2022/01/10 18:13:15;;;;;;;114.45;49.92;;;;;;;7.94;50.21;102485.00;4944321;28;97142;-76
2022/01/10 18:15:42;;;;;;;115.15;51.47;;;;;;;7.36;51.09;102490.00;4936145;28;99039;-74
2022/01/10 18:18:09;;;;;;;106.55;49.10;;;;;;;7.77;50.50;102497.19;4930701;28;99095;-75
2022/01/10 18:20:37;;;;;;;106.43;49.00;;;;;;;7.73;49.10;102500.69;4935448;28;97173;-76
2022/01/10 18:23:03;;;;;;;108.20;50.15;;;;;;;7.61;49.91;102504.16;4938337;28;96938;-75
2022/01/10 18:25:30;;;;;;;113.88;50.13;;;;;;;7.65;49.63;102505.94;4935322;28;99692;-75
2022/01/10 18:27:56;;;;;;;117.18;51.33;;;;;;;7.88;48.88;102500.72;4934771;28;99161;-75
2022/01/10 18:30:26;;;;;;;113.25;49.95;;;;;;;8.20;47.82;102506.13;4935660;28;97237;-75
2022/01/10 18:32:52;;;;;;;113.72;50.83;;;;;;;8.05;48.49;102509.59;4937594;28;96934;-76
2022/01/10 18:35:19;;;;;;;108.70;51.08;;;;;;;7.87;48.28;102525.31;4935136;28;99283;-76
2022/01/10 18:37:48;;;;;;;117.93;50.85;;;;;;;7.61;48.46;102522.59;4936651;28;98857;-76
2022/01/10 18:40:16;;;;;;;114.60;52.53;;;;;;;7.06;49.26;102526.63;4934924;28;96932;-75
2022/01/10 18:42:43;;;;;;;112.45;50.35;;;;;;;6.99;49.34;102527.44;4934533;28;97553;-76
2022/01/10 18:45:10;;;;;;;115.50;50.65;;;;;;;7.37;49.67;102525.06;4934967;28;98094;-73
2022/01/10 18:47:36;;;;;;;108.13;50.72;;;;;;;7.27;49.64;102528.53;4934743;28;98942;-74
2022/01/10 18:50:04;;;;;;;115.90;52.15;;;;;;;7.59;48.96;102540.97;4930240;28;96879;-74